createdAt,value
2022-12-01T00:01:20.101Z,101333.72
2022-12-01T00:03:47.248Z,101338.38
2022-12-01T00:06:17.820Z,101334.19
2022-12-01T00:09:06.692Z,101338.03
2022-12-01T00:11:35.567Z,101338.47
2022-12-01T00:14:02.995Z,101335.34
2022-12-01T00:16:30.355Z,101334.56
2022-12-01T00:18:58.155Z,101334.69
2022-12-01T00:21:26.970Z,101329.97
2022-12-01T00:23:56.860Z,101333.41
2022-12-01T00:26:25.250Z,101337.47
2022-12-01T00:28:55.616Z,101332.66
2022-12-01T00:31:22.953Z,101336.00
2022-12-01T00:33:49.860Z,101338.25
2022-12-01T00:36:16.904Z,101336.66
2022-12-01T00:38:43.773Z,101341.97
2022-12-01T00:41:10.646Z,101347.66
2022-12-01T00:43:37.472Z,101344.75
2022-12-01T00:46:04.490Z,101348.16
2022-12-01T00:48:31.411Z,101346.28
2022-12-01T00:50:58.293Z,101350.28
2022-12-01T00:53:25.141Z,101342.16
2022-12-01T00:55:53.970Z,101344.22
2022-12-01T00:58:21.876Z,101342.53
2022-12-01T01:00:49.130Z,101345.97
2022-12-01T01:03:15.979Z,101346.97
2022-12-01T01:05:43.893Z,101341.44
2022-12-01T01:08:13.168Z,101350.53
2022-12-01T01:10:46.143Z,101346.88
2022-12-01T01:13:14.339Z,101356.28
2022-12-01T01:15:41.672Z,101353.53
2022-12-01T01:18:09.775Z,101359.81
2022-12-01T01:20:36.697Z,101355.16
2022-12-01T01:23:03.669Z,101355.59
2022-12-01T01:25:32.694Z,101351.03
2022-12-01T01:27:59.527Z,101361.25
2022-12-01T01:30:26.359Z,101360.34
2022-12-01T01:32:53.262Z,101362.94
2022-12-01T01:35:20.136Z,101352.16
2022-12-01T01:37:46.965Z,101370.34
2022-12-01T01:40:13.817Z,101371.34
2022-12-01T01:42:40.649Z,101371.56
2022-12-01T01:45:21.307Z,101371.13
2022-12-01T01:47:50.319Z,101382.97
2022-12-01T01:50:21.842Z,101378.59
2022-12-01T01:52:57.330Z,101383.75
2022-12-01T01:55:25.007Z,101378.53
2022-12-01T01:57:51.920Z,101380.28
2022-12-01T02:00:20.992Z,101378.69
2022-12-01T02:02:49.177Z,101375.41
2022-12-01T02:05:30.995Z,101381.38
2022-12-01T02:07:59.620Z,101376.69
2022-12-01T02:11:12.706Z,101372.84
2022-12-01T02:14:14.588Z,101379.09
2022-12-01T02:17:09.532Z,101379.91
2022-12-01T02:19:48.508Z,101379.13
2022-12-01T02:23:01.869Z,101376.00
2022-12-01T02:26:22.190Z,101375.84
2022-12-01T02:29:25.238Z,101378.97
2022-12-01T02:32:32.694Z,101366.63
2022-12-01T02:35:25.111Z,101371.41
2022-12-01T02:38:15.044Z,101361.94
2022-12-01T02:41:01.712Z,101370.69
2022-12-01T02:43:51.068Z,101371.38
2022-12-01T02:46:34.407Z,101363.03
2022-12-01T02:49:10.404Z,101366.25
2022-12-01T02:51:40.224Z,101368.84
2022-12-01T02:54:08.531Z,101362.72
2022-12-01T02:56:35.388Z,101369.31
2022-12-01T02:59:02.245Z,101371.25
2022-12-01T03:01:59.853Z,101378.53
2022-12-01T03:05:00.637Z,101366.31
2022-12-01T03:07:54.666Z,101371.84
2022-12-01T03:10:45.795Z,101364.03
2022-12-01T03:13:27.480Z,101369.16
2022-12-01T03:16:16.603Z,101360.69
2022-12-01T03:19:14.831Z,101370.09
2022-12-01T03:21:52.266Z,101357.63
2022-12-01T03:24:22.871Z,101358.84
2022-12-01T03:26:56.985Z,101365.88
2022-12-01T03:29:50.051Z,101366.47
2022-12-01T03:32:33.823Z,101362.38
2022-12-01T03:35:08.956Z,101364.25
2022-12-01T03:38:40.269Z,101357.88
2022-12-01T03:41:16.855Z,101364.59
2022-12-01T03:43:51.905Z,101369.66
2022-12-01T03:46:53.026Z,101359.66
2022-12-01T03:49:21.703Z,101359.66
2022-12-01T03:52:35.950Z,101371.16
2022-12-01T03:55:21.169Z,101371.16
2022-12-01T03:58:13.905Z,101368.56
2022-12-01T04:00:41.866Z,101377.66
2022-12-01T04:03:16.936Z,101365.81
2022-12-01T04:05:43.934Z,101372.06
2022-12-01T04:08:10.911Z,101380.97
2022-12-01T04:10:37.886Z,101382.44
2022-12-01T04:13:04.820Z,101379.75
2022-12-01T04:15:31.696Z,101388.53
2022-12-01T04:17:58.573Z,101384.81
2022-12-01T04:20:25.447Z,101381.94
2022-12-01T04:22:52.272Z,101383.66
2022-12-01T04:25:19.152Z,101382.72
2022-12-01T04:27:46.071Z,101392.03
2022-12-01T04:30:13.382Z,101382.38
2022-12-01T04:32:42.711Z,101380.47
2022-12-01T04:35:12.322Z,101383.00
2022-12-01T04:37:39.923Z,101387.28
2022-12-01T04:40:08.079Z,101386.00
2022-12-01T04:42:35.065Z,101389.59
2022-12-01T04:45:02.075Z,101389.94
2022-12-01T04:47:29.081Z,101381.75
2022-12-01T04:49:55.992Z,101378.16
2022-12-01T04:52:22.847Z,101384.63
2022-12-01T04:54:49.707Z,101384.94
2022-12-01T04:57:16.600Z,101389.59
2022-12-01T04:59:43.525Z,101389.09
2022-12-01T05:02:10.526Z,101393.09
2022-12-01T05:04:41.243Z,101397.44
2022-12-01T05:07:08.526Z,101392.66
2022-12-01T05:09:35.601Z,101393.47
2022-12-01T05:12:02.406Z,101391.75
2022-12-01T05:14:29.316Z,101394.22
2022-12-01T05:16:58.055Z,101399.16
2022-12-01T05:19:43.557Z,101400.69
2022-12-01T05:22:10.413Z,101394.47
2022-12-01T05:24:37.294Z,101388.16
2022-12-01T05:27:04.299Z,101390.25
2022-12-01T05:29:32.975Z,101402.81
2022-12-01T05:32:00.201Z,101400.69
2022-12-01T05:34:27.212Z,101407.50
2022-12-01T05:36:54.135Z,101400.47
2022-12-01T05:39:21.011Z,101402.66
2022-12-01T05:41:47.821Z,101401.94
2022-12-01T05:44:14.670Z,101398.88
2022-12-01T05:46:41.568Z,101396.56
2022-12-01T05:49:08.452Z,101404.19
2022-12-01T05:51:35.462Z,101402.13
2022-12-01T05:54:02.416Z,101410.59
2022-12-01T05:56:29.218Z,101404.84
2022-12-01T05:58:56.139Z,101410.59
2022-12-01T06:01:23.273Z,101420.16
2022-12-01T06:03:50.194Z,101413.47
2022-12-01T06:06:17.537Z,101415.44
2022-12-01T06:08:44.435Z,101417.00
2022-12-01T06:11:11.581Z,101420.16
2022-12-01T06:13:38.766Z,101423.97
2022-12-01T06:16:07.264Z,101420.09
2022-12-01T06:18:37.425Z,101432.72
2022-12-01T06:21:06.422Z,101422.50
2022-12-01T06:23:33.969Z,101419.72
2022-12-01T06:26:00.928Z,101426.72
2022-12-01T06:28:27.887Z,101422.41
2022-12-01T06:31:01.010Z,101427.50
2022-12-01T06:33:30.192Z,101422.97
2022-12-01T06:36:03.033Z,101428.38
2022-12-01T06:38:37.209Z,101425.19
2022-12-01T06:41:05.410Z,101426.56
2022-12-01T06:43:32.667Z,101422.59
2022-12-01T06:46:02.098Z,101425.44
2022-12-01T06:48:30.568Z,101428.75
2022-12-01T06:50:59.250Z,101426.94
2022-12-01T06:53:28.270Z,101439.44
2022-12-01T06:56:03.591Z,101446.25
2022-12-01T06:58:31.189Z,101446.09
2022-12-01T07:00:59.024Z,101445.03
2022-12-01T07:03:26.146Z,101444.31
2022-12-01T07:06:00.890Z,101441.06
2022-12-01T07:08:29.869Z,101451.25
2022-12-01T07:11:04.957Z,101452.63
2022-12-01T07:13:33.882Z,101452.06
2022-12-01T07:16:05.822Z,101452.84
2022-12-01T07:18:33.311Z,101459.66
2022-12-01T07:21:10.341Z,101460.50
2022-12-01T07:23:37.206Z,101470.13
2022-12-01T07:26:11.650Z,101462.84
2022-12-01T07:28:38.692Z,101466.22
2022-12-01T07:31:11.048Z,101465.88
2022-12-01T07:33:38.475Z,101465.25
2022-12-01T07:36:06.389Z,101469.69
2022-12-01T07:38:34.788Z,101472.63
2022-12-01T07:41:08.447Z,101468.06
2022-12-01T07:43:36.778Z,101476.75
2022-12-01T07:46:09.197Z,101472.34
2022-12-01T07:48:37.739Z,101472.53
2022-12-01T07:51:18.379Z,101483.84
2022-12-01T07:53:47.417Z,101488.16
2022-12-01T07:56:14.561Z,101484.38
2022-12-01T07:58:42.076Z,101487.47
2022-12-01T08:01:20.393Z,101479.34
2022-12-01T08:03:55.765Z,101484.28
2022-12-01T08:06:24.130Z,101482.91
2022-12-01T08:08:51.858Z,101481.13
2022-12-01T08:11:25.178Z,101487.38
2022-12-01T08:13:53.454Z,101482.56
2022-12-01T08:16:22.811Z,101479.59
2022-12-01T08:18:50.495Z,101483.66
2022-12-01T08:21:21.132Z,101482.13
2022-12-01T08:23:48.843Z,101486.25
2022-12-01T08:26:18.546Z,101484.28
2022-12-01T08:28:46.739Z,101482.47
2022-12-01T08:31:20.193Z,101481.66
2022-12-01T08:33:49.969Z,101486.09
2022-12-01T08:36:18.436Z,101489.81
2022-12-01T08:38:47.072Z,101483.41
2022-12-01T08:41:15.103Z,101485.19
2022-12-01T08:44:00.454Z,101490.88
2022-12-01T08:46:32.289Z,101489.25
2022-12-01T08:48:59.290Z,101487.91
2022-12-01T08:51:26.945Z,101486.78
2022-12-01T08:53:57.027Z,101487.34
2022-12-01T08:56:37.943Z,101502.53
2022-12-01T08:59:05.012Z,101490.50
2022-12-01T09:01:32.989Z,101487.63
2022-12-01T09:04:05.657Z,101492.53
2022-12-01T09:06:39.671Z,101488.31
2022-12-01T09:09:09.503Z,101483.59
2022-12-01T09:11:36.344Z,101491.59
2022-12-01T09:14:03.531Z,101486.59
2022-12-01T09:16:30.752Z,101487.03
2022-12-01T09:18:57.913Z,101479.09
2022-12-01T09:21:28.396Z,101480.69
2022-12-01T09:23:55.242Z,101489.00
2022-12-01T09:26:23.053Z,101494.31
2022-12-01T09:28:54.968Z,101495.88
2022-12-01T09:31:23.460Z,101495.88
2022-12-01T09:33:59.145Z,101490.16
2022-12-01T09:36:26.378Z,101495.22
2022-12-01T09:38:53.663Z,101490.47
2022-12-01T09:41:45.294Z,101492.47
2022-12-01T09:44:34.095Z,101492.16
2022-12-01T09:47:13.350Z,101488.63
2022-12-01T09:50:06.550Z,101487.47
2022-12-01T09:52:47.698Z,101481.69
2022-12-01T09:55:17.963Z,101479.13
2022-12-01T09:57:49.168Z,101480.75
2022-12-01T10:00:29.977Z,101483.56
2022-12-01T10:03:32.928Z,101482.22
2022-12-01T10:09:28.514Z,101477.56
2022-12-01T10:12:05.797Z,101471.53
2022-12-01T10:14:36.013Z,101473.47
2022-12-01T10:17:24.331Z,101469.91
2022-12-01T10:20:20.167Z,101466.22
2022-12-01T10:23:20.426Z,101463.94
2022-12-01T10:25:59.327Z,101454.53
2022-12-01T10:28:51.497Z,101462.31
2022-12-01T10:31:50.305Z,101455.06
2022-12-01T10:34:37.771Z,101451.81
2022-12-01T10:37:04.910Z,101455.75
2022-12-01T10:39:41.917Z,101440.31
2022-12-01T10:42:22.126Z,101445.00
2022-12-01T10:44:50.622Z,101439.72
2022-12-01T10:47:24.822Z,101431.94
2022-12-01T10:49:52.781Z,101432.41
2022-12-01T10:52:41.560Z,101431.06
2022-12-01T10:55:29.297Z,101429.81
2022-12-01T10:57:58.527Z,101424.09
2022-12-01T11:03:23.532Z,101416.53
2022-12-01T11:05:58.063Z,101401.44
2022-12-01T11:08:37.088Z,101397.44
2022-12-01T11:11:04.707Z,101404.41
2022-12-01T11:13:35.488Z,101393.59
2022-12-01T11:16:05.322Z,101400.50
2022-12-01T11:18:38.533Z,101387.44
2022-12-01T11:21:26.620Z,101388.28
2022-12-01T11:23:55.940Z,101397.97
2022-12-01T11:26:31.044Z,101394.66
2022-12-01T11:29:37.882Z,101397.13
2022-12-01T11:32:18.435Z,101390.97
2022-12-01T11:35:20.116Z,101381.66
2022-12-01T11:38:21.204Z,101389.22
2022-12-01T11:40:48.716Z,101389.44
2022-12-01T11:43:34.302Z,101388.03
2022-12-01T11:46:08.077Z,101388.34
2022-12-01T11:48:36.643Z,101394.00
2022-12-01T11:51:31.871Z,101386.81
2022-12-01T11:54:25.478Z,101390.22
2022-12-01T11:59:41.144Z,101382.41
2022-12-01T12:03:18.721Z,101376.09
2022-12-01T12:06:31.927Z,101385.25
2022-12-01T12:09:02.183Z,101383.84
2022-12-01T12:12:02.105Z,101385.22
2022-12-01T12:14:35.016Z,101380.50
2022-12-01T12:17:15.100Z,101377.31
2022-12-01T12:20:27.917Z,101379.28
2022-12-01T12:23:27.101Z,101370.66
2022-12-01T12:26:25.423Z,101371.69
2022-12-01T12:29:22.934Z,101380.34
2022-12-01T12:32:16.916Z,101377.13
2022-12-01T12:35:02.970Z,101371.22
2022-12-01T12:37:54.465Z,101366.78
2022-12-01T12:40:42.319Z,101365.09
2022-12-01T12:43:44.186Z,101366.78
2022-12-01T12:46:16.803Z,101364.03
2022-12-01T12:49:26.065Z,101364.19
2022-12-01T12:52:08.938Z,101373.69
2022-12-01T12:54:41.620Z,101376.13
2022-12-01T12:57:31.677Z,101374.09
2022-12-01T13:00:12.675Z,101375.91
2022-12-01T13:03:06.110Z,101372.47
2022-12-01T13:05:49.369Z,101363.44
2022-12-01T13:08:40.489Z,101359.44
2022-12-01T13:11:24.770Z,101362.25
2022-12-01T13:14:02.831Z,101374.78
2022-12-01T13:16:44.512Z,101369.19
2022-12-01T13:19:35.638Z,101369.25
2022-12-01T13:22:04.339Z,101358.88
2022-12-01T13:24:31.538Z,101354.19
2022-12-01T13:27:05.274Z,101349.75
2022-12-01T13:29:43.910Z,101367.66
2022-12-01T13:32:36.636Z,101350.88
2022-12-01T13:35:29.590Z,101346.47
2022-12-01T13:38:26.352Z,101350.31
2022-12-01T13:41:33.354Z,101352.28
2022-12-01T13:44:24.991Z,101344.28
2022-12-01T13:46:59.712Z,101345.69
2022-12-01T13:49:47.159Z,101339.56
2022-12-01T13:52:23.616Z,101343.44
2022-12-01T13:55:09.282Z,101338.66
2022-12-01T13:57:49.309Z,101330.94
2022-12-01T14:00:32.123Z,101331.03
2022-12-01T14:03:19.597Z,101327.44
2022-12-01T14:05:57.124Z,101326.03
2022-12-01T14:08:37.813Z,101325.06
2022-12-01T14:11:22.452Z,101327.47
2022-12-01T14:14:00.834Z,101329.41
2022-12-01T14:16:53.338Z,101327.47
2022-12-01T14:19:44.856Z,101337.69
2022-12-01T14:22:35.117Z,101320.50
2022-12-01T14:25:25.781Z,101327.72
2022-12-01T14:27:59.665Z,101332.72
2022-12-01T14:30:41.990Z,101325.09
2022-12-01T14:33:39.664Z,101332.28
2022-12-01T14:36:21.855Z,101326.47
2022-12-01T14:38:53.622Z,101324.38
2022-12-01T14:41:45.816Z,101328.50
2022-12-01T14:44:33.527Z,101318.28
2022-12-01T14:47:11.283Z,101324.44
2022-12-01T14:49:52.721Z,101326.06
2022-12-01T14:52:28.572Z,101323.03
2022-12-01T14:54:59.648Z,101323.66
2022-12-01T14:57:36.763Z,101323.28
2022-12-01T15:00:23.169Z,101320.97
2022-12-01T15:03:16.577Z,101317.25
2022-12-01T15:05:44.290Z,101325.16
2022-12-01T15:11:26.005Z,101321.22
2022-12-01T15:13:55.499Z,101322.84
2022-12-01T15:16:30.866Z,101329.03
2022-12-01T15:18:57.969Z,101333.06
2022-12-01T15:21:31.457Z,101325.44
2022-12-01T15:24:24.835Z,101326.53
2022-12-01T15:27:03.444Z,101326.22
2022-12-01T15:29:45.474Z,101327.75
2022-12-01T15:32:16.632Z,101330.22
2022-12-01T15:34:48.362Z,101327.53
2022-12-01T15:37:25.106Z,101332.69
2022-12-01T15:40:00.812Z,101333.22
2022-12-01T15:42:39.501Z,101330.13
2022-12-01T15:45:15.379Z,101326.88
2022-12-01T15:47:45.093Z,101323.56
2022-12-01T15:50:39.704Z,101325.91
2022-12-01T15:53:33.371Z,101323.63
2022-12-01T15:56:05.683Z,101329.53
2022-12-01T15:58:43.243Z,101339.34
2022-12-01T16:01:20.819Z,101337.75
2022-12-01T16:03:59.218Z,101334.34
2022-12-01T16:06:32.073Z,101328.31
2022-12-01T16:09:07.128Z,101320.13
2022-12-01T16:11:34.259Z,101329.06
2022-12-01T16:14:08.104Z,101323.69
2022-12-01T16:16:45.096Z,101328.00
2022-12-01T16:19:11.900Z,101333.16
2022-12-01T16:21:52.303Z,101325.56
2022-12-01T16:24:53.577Z,101328.16
2022-12-01T16:27:29.677Z,101332.63
2022-12-01T16:30:02.926Z,101332.63
2022-12-01T16:32:39.538Z,101337.03
2022-12-01T16:35:30.371Z,101334.56
2022-12-01T16:37:58.552Z,101334.00
2022-12-01T16:40:25.712Z,101334.00
2022-12-01T16:42:52.621Z,101333.91
2022-12-01T16:45:20.600Z,101337.88
2022-12-01T16:47:49.387Z,101341.22
2022-12-01T16:50:19.384Z,101341.81
2022-12-01T16:52:46.605Z,101343.50
2022-12-01T16:55:42.509Z,101346.69
2022-12-01T16:58:09.433Z,101341.56
2022-12-01T17:00:36.553Z,101337.94
2022-12-01T17:03:04.427Z,101335.00
2022-12-01T17:05:32.402Z,101340.34
2022-12-01T17:07:59.351Z,101342.19
2022-12-01T17:10:26.233Z,101341.22
2022-12-01T17:12:53.169Z,101345.78
2022-12-01T17:15:20.151Z,101345.81
2022-12-01T17:17:47.133Z,101345.25
2022-12-01T17:20:14.450Z,101345.00
2022-12-01T17:22:41.494Z,101347.78
2022-12-01T17:25:09.747Z,101354.38
2022-12-01T17:27:38.577Z,101354.38
2022-12-01T17:30:07.795Z,101350.91
2022-12-01T17:32:34.723Z,101353.69
2022-12-01T17:35:01.646Z,101362.75
2022-12-01T17:37:28.818Z,101354.97
2022-12-01T17:39:55.770Z,101361.34
2022-12-01T17:42:22.690Z,101353.03
2022-12-01T17:44:49.834Z,101363.28
2022-12-01T17:47:16.979Z,101354.66
2022-12-01T17:49:43.952Z,101352.66
2022-12-01T17:52:10.976Z,101364.41
2022-12-01T17:54:38.288Z,101361.53
2022-12-01T17:57:07.283Z,101359.38
2022-12-01T17:59:36.752Z,101357.31
2022-12-01T18:02:04.711Z,101362.75
2022-12-01T18:04:31.841Z,101364.38
2022-12-01T18:06:59.262Z,101353.78
2022-12-01T18:09:26.478Z,101362.59
2022-12-01T18:11:56.343Z,101354.66
2022-12-01T18:14:25.050Z,101355.25
2022-12-01T18:16:52.780Z,101347.97
2022-12-01T18:19:20.557Z,101353.03
2022-12-01T18:21:47.610Z,101351.72
2022-12-01T18:24:14.545Z,101354.22
2022-12-01T18:26:41.500Z,101346.03
2022-12-01T18:29:15.975Z,101349.59
2022-12-01T18:31:43.545Z,101349.53
2022-12-01T18:34:11.757Z,101344.47
2022-12-01T18:36:40.752Z,101349.91
2022-12-01T18:39:09.421Z,101350.09
2022-12-01T18:41:37.138Z,101342.03
2022-12-01T18:44:04.484Z,101350.84
2022-12-01T18:46:32.097Z,101333.84
2022-12-01T18:49:02.948Z,101343.00
2022-12-01T18:51:32.880Z,101347.84
2022-12-01T18:54:02.322Z,101344.47
2022-12-01T18:56:30.265Z,101346.50
2022-12-01T18:59:00.872Z,101349.50
2022-12-01T19:01:34.267Z,101341.22
2022-12-01T19:04:01.850Z,101352.28
2022-12-01T19:06:29.822Z,101349.88
2022-12-01T19:09:00.170Z,101344.09
2022-12-01T19:11:27.861Z,101348.19
2022-12-01T19:13:56.692Z,101345.06
2022-12-01T19:16:24.386Z,101349.09
2022-12-01T19:18:51.536Z,101350.50
2022-12-01T19:21:20.029Z,101356.88
2022-12-01T19:23:47.852Z,101343.38
2022-12-01T19:26:20.508Z,101346.72
2022-12-01T19:28:47.880Z,101349.69
2022-12-01T19:31:20.157Z,101348.09
2022-12-01T19:33:47.329Z,101337.81
2022-12-01T19:36:24.455Z,101346.28
2022-12-01T19:38:53.314Z,101344.69
2022-12-01T19:41:20.814Z,101331.75
2022-12-01T19:43:48.084Z,101346.16
2022-12-01T19:46:19.078Z,101339.75
2022-12-01T19:48:47.488Z,101352.25
2022-12-01T19:51:28.417Z,101343.88
2022-12-01T19:53:55.699Z,101329.97
2022-12-01T19:56:23.574Z,101328.56
2022-12-01T19:58:50.798Z,101333.97
2022-12-01T20:01:18.918Z,101330.56
2022-12-01T20:03:49.077Z,101323.97
2022-12-01T20:06:20.624Z,101323.97
2022-12-01T20:08:48.060Z,101334.22
2022-12-01T20:11:15.600Z,101326.16
2022-12-01T20:13:44.450Z,101327.44
2022-12-01T20:16:18.692Z,101318.91
2022-12-01T20:18:46.442Z,101322.97
2022-12-01T20:21:25.528Z,101324.22
2022-12-01T20:24:20.160Z,101325.03
2022-12-01T20:26:51.853Z,101321.03
2022-12-01T20:29:26.359Z,101331.94
2022-12-01T20:31:55.686Z,101323.13
2022-12-01T20:34:33.531Z,101325.66
2022-12-01T20:37:00.598Z,101328.81
2022-12-01T20:39:28.500Z,101321.28
2022-12-01T20:41:55.395Z,101320.22
2022-12-01T20:44:22.292Z,101329.38
2022-12-01T20:46:49.200Z,101316.69
2022-12-01T20:49:17.522Z,101326.94
2022-12-01T20:51:45.093Z,101319.38
2022-12-01T20:54:30.578Z,101314.69
2022-12-01T20:56:58.402Z,101310.88
2022-12-01T20:59:25.290Z,101318.00
2022-12-01T21:01:52.204Z,101306.94
2022-12-01T21:04:19.121Z,101312.88
2022-12-01T21:06:46.281Z,101318.69
2022-12-01T21:09:14.898Z,101309.81
2022-12-01T21:12:07.981Z,101308.00
2022-12-01T21:14:54.564Z,101306.50
2022-12-01T21:17:39.578Z,101301.69
2022-12-01T21:20:31.332Z,101303.16
2022-12-01T21:23:16.981Z,101303.59
2022-12-01T21:25:44.436Z,101296.91
2022-12-01T21:28:24.095Z,101305.94
2022-12-01T21:31:10.563Z,101303.41
2022-12-01T21:33:39.073Z,101309.56
2022-12-01T21:36:22.241Z,101303.41
2022-12-01T21:38:55.772Z,101304.78
2022-12-01T21:41:28.043Z,101299.00
2022-12-01T21:44:01.400Z,101304.41
2022-12-01T21:46:28.643Z,101308.59
2022-12-01T21:48:55.732Z,101308.50
2022-12-01T21:51:24.413Z,101311.09
2022-12-01T21:53:53.298Z,101307.72
2022-12-01T21:56:28.861Z,101311.50
2022-12-01T21:59:34.378Z,101309.22
2022-12-01T22:02:51.520Z,101302.22
2022-12-01T22:05:27.951Z,101308.00
2022-12-01T22:08:38.573Z,101306.97
2022-12-01T22:11:18.663Z,101307.03
2022-12-01T22:13:53.679Z,101307.22
2022-12-01T22:16:31.698Z,101304.94
2022-12-01T22:19:17.198Z,101304.69
2022-12-01T22:21:57.996Z,101304.38
2022-12-01T22:24:32.109Z,101300.41
2022-12-01T22:27:39.655Z,101303.00
2022-12-01T22:30:06.455Z,101301.09
2022-12-01T22:32:54.152Z,101296.44
2022-12-01T22:35:28.493Z,101295.31
2022-12-01T22:38:21.406Z,101296.44
2022-12-01T22:40:48.176Z,101294.88
2022-12-01T22:43:17.812Z,101289.72
2022-12-01T22:45:52.994Z,101299.53
2022-12-01T22:48:40.049Z,101292.13
2022-12-01T22:51:35.495Z,101296.69
2022-12-01T22:54:20.451Z,101285.28
2022-12-01T22:56:51.168Z,101287.03
2022-12-01T22:59:23.184Z,101280.13
2022-12-01T23:01:59.120Z,101281.16
2022-12-01T23:04:28.080Z,101277.69
2022-12-01T23:06:59.669Z,101283.47
2022-12-01T23:09:41.557Z,101267.19
2022-12-01T23:12:11.251Z,101270.72
2022-12-01T23:14:51.044Z,101274.34
2022-12-01T23:17:29.622Z,101279.34
2022-12-01T23:20:11.143Z,101273.97
2022-12-01T23:22:38.738Z,101270.84
2022-12-01T23:25:20.256Z,101263.72
2022-12-01T23:27:50.563Z,101257.53
2022-12-01T23:30:21.037Z,101260.38
2022-12-01T23:33:14.615Z,101257.09
2022-12-01T23:36:06.977Z,101263.19
2022-12-01T23:38:39.326Z,101251.53
2022-12-01T23:41:44.955Z,101251.56
2022-12-01T23:44:24.216Z,101242.69
2022-12-01T23:46:53.852Z,101239.06
2022-12-01T23:49:48.575Z,101234.31
2022-12-01T23:52:21.172Z,101235.63
2022-12-01T23:54:48.640Z,101231.44
2022-12-01T23:57:24.802Z,101225.19
